Weather History for Glenwood, MN

Change the Weather History Date:

Tuesday, October 4, 2011

  Actual Average Record
Temperature  
Mean Temperature 65 °F -  
Max Temperature 82 °F 62 °F 82 °F (1987)
Min Temperature 48 °F 39 °F 24 °F (1989)
Growing Degree Days 15 (Base 50)    
Moisture  
Dew Point 36 °F    
Average Humidity 38    
Maximum Humidity 66    
Minimum Humidity 17    
Precipitation  
Precipitation 0.00 in - - ()
Sea Level Pressure  
Sea Level Pressure 30.07 in    
Wind  
Wind Speed 9 mph (SE)    
Max Wind Speed 22 mph    
Max Gust Speed 28 mph    
Visibility 10 miles    
Events      
Averages and records for this station are not official NWS values.
T = Trace of Precipitation, MM = Missing Value Source: NWS Daily Summary

Daily Weather History Graph

Daily Weather History Graph

Search for Another Location

Airport:

Trip Planner

Search our weather history database for the weather conditions in past years. The results will help you decide how hot, cold, wet, or windy it might be!

Date:

Astronomy

Oct. 04, 2011 Rise Set
Actual Time 7:23 AM CDT 6:56 PM CDT
Civil Twilight 6:53 AM CDT 7:25 PM CDT
Nautical Twilight 6:19 AM CDT 8:00 PM CDT
Astronomical Twilight 5:44 AM CDT 8:34 PM CDT
Moon 3:17 PM CDT (10/4) No Moon Set
Length of Visible Light 12h 32m
Length of Day
11h 33m
First Quarter, 56% of the Moon is Illuminated
Oct 4
First Quarter
Oct 11
Full
Oct 19
Last Quarter
Oct 26
New
Nov 2
First Quarter

Hourly Weather History & Observations

Time (CDT) Temp. Dew Point Humidity Pressure Visibility Wind Dir Wind Speed Gust Speed Precip Events Conditions
12:14 AM 53.6 °F 35.6 °F 51% 30.12 in 10.0 mi SE 5.8 mph - N/A   Clear
12:33 AM 55.4 °F 35.6 °F 47% 30.13 in 10.0 mi SSE 6.9 mph - N/A   Clear
12:54 AM 55.4 °F 35.6 °F 47% 30.12 in 10.0 mi SSE 6.9 mph - N/A   Clear
1:14 AM 57.2 °F 35.6 °F 44% 30.12 in 10.0 mi SSE 9.2 mph - N/A   Clear
1:34 AM 57.2 °F 35.6 °F 44% 30.12 in 10.0 mi South 8.1 mph - N/A   Clear
1:53 AM 57.2 °F 33.8 °F 41% 30.12 in 10.0 mi South 8.1 mph - N/A   Clear
2:13 AM 57.2 °F 33.8 °F 41% 30.13 in 10.0 mi South 5.8 mph - N/A   Clear
2:34 AM 57.2 °F 33.8 °F 41% 30.13 in 10.0 mi SSE 4.6 mph - N/A   Clear
2:53 AM 57.2 °F 35.6 °F 44% 30.13 in 10.0 mi SSE 4.6 mph - N/A   Clear
3:14 AM 55.4 °F 35.6 °F 47% 30.12 in 10.0 mi SSE 5.8 mph - N/A   Clear
3:34 AM 55.4 °F 35.6 °F 47% 30.12 in 10.0 mi SSE 6.9 mph - N/A   Clear
3:54 AM 53.6 °F 35.6 °F 51% 30.12 in 10.0 mi SSE 6.9 mph - N/A   Clear
4:14 AM 53.6 °F 35.6 °F 51% 30.12 in 10.0 mi SSE 6.9 mph - N/A   Clear
4:34 AM 53.6 °F 37.4 °F 54% 30.11 in 10.0 mi SE 6.9 mph - N/A   Clear
4:53 AM 53.6 °F 37.4 °F 54% 30.11 in 10.0 mi SSE 4.6 mph - N/A   Clear
5:14 AM 51.8 °F 35.6 °F 54% 30.11 in 10.0 mi SE 4.6 mph - N/A   Clear
5:33 AM 50.0 °F 35.6 °F 58% 30.11 in 10.0 mi ESE 4.6 mph - N/A   Clear
6:13 AM 50.0 °F 37.4 °F 62% 30.11 in 10.0 mi SE 5.8 mph - N/A   Clear
6:34 AM 50.0 °F 37.4 °F 62% 30.11 in 10.0 mi ESE 5.8 mph - N/A   Clear
6:53 AM 48.2 °F 37.4 °F 66% 30.11 in 10.0 mi ESE 6.9 mph - N/A   Clear
7:13 AM 48.2 °F 37.4 °F 66% 30.11 in 10.0 mi ESE 6.9 mph - N/A   Clear
7:33 AM 48.2 °F 37.4 °F 66% 30.11 in 10.0 mi ESE 6.9 mph - N/A   Clear
7:53 AM 50.0 °F 37.4 °F 62% 30.11 in 10.0 mi ESE 8.1 mph - N/A   Clear
8:14 AM 51.8 °F 37.4 °F 58% 30.12 in 10.0 mi SE 8.1 mph - N/A   Clear
8:34 AM 53.6 °F 37.4 °F 54% 30.12 in 10.0 mi SE 8.1 mph - N/A   Clear
9:14 AM 59.0 °F 37.4 °F 45% 30.11 in 10.0 mi SE 9.2 mph - N/A   Clear
9:34 AM 62.6 °F 37.4 °F 39% 30.11 in 10.0 mi SE 9.2 mph - N/A   Clear
9:54 AM 64.4 °F 37.4 °F 37% 30.11 in 10.0 mi SSE 11.5 mph - N/A   Clear
10:14 AM 64.4 °F 37.4 °F 37% 30.11 in 10.0 mi SSE 8.1 mph - N/A   Clear
10:33 AM 66.2 °F 37.4 °F 35% 30.11 in 10.0 mi SSE 5.8 mph - N/A   Clear
11:14 AM 71.6 °F 35.6 °F 27% 30.10 in 10.0 mi SE 10.4 mph - N/A   Clear
11:34 AM 73.4 °F 35.6 °F 25% 30.10 in 10.0 mi SE 11.5 mph - N/A   Clear
11:53 AM 75.2 °F 35.6 °F 24% 30.09 in 10.0 mi SSE 12.7 mph 17.3 mph N/A   Clear
12:13 PM 75.2 °F 35.6 °F 24% 30.08 in 10.0 mi SE 13.8 mph - N/A   Clear
12:33 PM 78.8 °F 35.6 °F 21% 30.08 in 10.0 mi SSE 17.3 mph 21.9 mph N/A   Clear
12:54 PM 80.6 °F 33.8 °F 18% 30.07 in 10.0 mi SE 17.3 mph 21.9 mph N/A   Clear
1:14 PM 80.6 °F 33.8 °F 18% 30.06 in 10.0 mi SE 18.4 mph 25.3 mph N/A   Clear
1:34 PM 80.6 °F 33.8 °F 18% 30.05 in 10.0 mi SSE 18.4 mph 23.0 mph N/A   Clear
1:54 PM 82.4 °F 33.8 °F 17% 30.04 in 10.0 mi SSE 19.6 mph 25.3 mph N/A   Clear
2:13 PM 82.4 °F 33.8 °F 17% 30.03 in 10.0 mi SE 18.4 mph 25.3 mph N/A   Clear
2:34 PM 82.4 °F 33.8 °F 17% 30.02 in 10.0 mi SSE 20.7 mph 26.5 mph N/A   Clear
2:53 PM 82.4 °F 33.8 °F 17% 30.02 in 10.0 mi SE 18.4 mph 27.6 mph N/A   Clear
3:13 PM 82.4 °F 33.8 °F 17% 30.02 in 10.0 mi SE 20.7 mph 27.6 mph N/A   Clear
3:54 PM 82.4 °F 33.8 °F 17% 30.01 in 10.0 mi SE 21.9 mph 27.6 mph N/A   Clear
4:13 PM 80.6 °F 33.8 °F 18% 30.01 in 10.0 mi SE 18.4 mph 24.2 mph N/A   Clear
4:34 PM 82.4 °F 35.6 °F 19% 30.00 in 10.0 mi SSE 16.1 mph 23.0 mph N/A   Clear
4:53 PM 82.4 °F 35.6 °F 19% 30.00 in 10.0 mi SE 16.1 mph 21.9 mph N/A   Clear
5:14 PM 82.4 °F 35.6 °F 19% 30.00 in 10.0 mi SE 16.1 mph 21.9 mph N/A   Clear
5:34 PM 80.6 °F 35.6 °F 20% 30.00 in 10.0 mi SSE 15.0 mph 20.7 mph N/A   Clear
5:54 PM 78.8 °F 37.4 °F 23% 29.99 in 10.0 mi SE 10.4 mph - N/A   Clear
6:13 PM 78.8 °F 37.4 °F 23% 29.99 in 10.0 mi SE 9.2 mph - N/A   Clear
6:33 PM 75.2 °F 37.4 °F 25% 29.99 in 10.0 mi SE 6.9 mph - N/A   Clear
6:53 PM 73.4 °F 39.2 °F 29% 30.00 in 7.0 mi ESE 8.1 mph - N/A   Clear
7:14 PM 71.6 °F 41.0 °F 33% 30.00 in 10.0 mi ESE 8.1 mph - N/A   Clear
7:34 PM 69.8 °F 41.0 °F 35% 29.99 in 10.0 mi ESE 8.1 mph - N/A   Clear
8:14 PM 68.0 °F 42.8 °F 40% 30.00 in 10.0 mi ESE 8.1 mph - N/A   Clear
8:33 PM 66.2 °F 42.8 °F 43% 30.00 in 10.0 mi ESE 6.9 mph - N/A   Clear
8:54 PM 62.6 °F 42.8 °F 48% 29.99 in 10.0 mi ESE 6.9 mph - N/A   Clear
9:34 PM 64.4 °F 42.8 °F 45% 29.99 in 10.0 mi SE 9.2 mph - N/A   Clear
9:53 PM 66.2 °F 42.8 °F 43% 29.99 in 10.0 mi SE 10.4 mph - N/A   Clear
10:13 PM 66.2 °F 42.8 °F 43% 29.99 in 10.0 mi SE 9.2 mph - N/A   Clear
10:33 PM 64.4 °F 42.8 °F 45% 29.99 in 10.0 mi SE 8.1 mph - N/A   Clear
11:14 PM 66.2 °F 42.8 °F 43% 30.00 in 10.0 mi SSE 9.2 mph - N/A   Clear
11:34 PM 66.2 °F 42.8 °F 43% 29.99 in 10.0 mi SSE 8.1 mph - N/A   Clear
11:54 PM 66.2 °F 42.8 °F 43% 29.99 in 10.0 mi SSE 9.2 mph - N/A   Clear